sensor_id;sensor_type;location;lat;lon;timestamp;temperature;humidity
17851;DHT22;9051;51.548;14.348;2022-12-20T00:00:27;2.00;99.90
17851;DHT22;9051;51.548;14.348;2022-12-20T00:02:59;2.00;99.90
17851;DHT22;9051;51.548;14.348;2022-12-20T00:05:35;2.00;99.90
17851;DHT22;9051;51.548;14.348;2022-12-20T00:08:09;2.00;99.90
17851;DHT22;9051;51.548;14.348;2022-12-20T00:10:42;2.00;99.90
17851;DHT22;9051;51.548;14.348;2022-12-20T00:13:15;2.00;99.90
17851;DHT22;9051;51.548;14.348;2022-12-20T00:15:47;2.00;99.90
17851;DHT22;9051;51.548;14.348;2022-12-20T00:18:19;1.90;99.90
17851;DHT22;9051;51.548;14.348;2022-12-20T00:20:57;2.00;99.90
17851;DHT22;9051;51.548;14.348;2022-12-20T00:23:30;2.00;99.90
17851;DHT22;9051;51.548;14.348;2022-12-20T00:26:04;2.00;99.90
17851;DHT22;9051;51.548;14.348;2022-12-20T00:28:38;2.00;99.90
17851;DHT22;9051;51.548;14.348;2022-12-20T00:31:12;2.00;99.90
17851;DHT22;9051;51.548;14.348;2022-12-20T00:33:46;2.00;99.90
17851;DHT22;9051;51.548;14.348;2022-12-20T00:36:19;2.00;99.90
17851;DHT22;9051;51.548;14.348;2022-12-20T00:38:54;2.00;99.90
17851;DHT22;9051;51.548;14.348;2022-12-20T00:41:28;2.00;99.90
17851;DHT22;9051;51.548;14.348;2022-12-20T00:44:01;2.00;99.90
17851;DHT22;9051;51.548;14.348;2022-12-20T00:46:33;2.10;99.90
17851;DHT22;9051;51.548;14.348;2022-12-20T00:49:05;2.00;99.90
17851;DHT22;9051;51.548;14.348;2022-12-20T00:51:37;2.00;99.90
17851;DHT22;9051;51.548;14.348;2022-12-20T00:54:11;2.00;99.90
17851;DHT22;9051;51.548;14.348;2022-12-20T00:56:43;2.00;99.90
17851;DHT22;9051;51.548;14.348;2022-12-20T00:59:14;2.10;99.90
17851;DHT22;9051;51.548;14.348;2022-12-20T01:01:47;2.10;99.90
17851;DHT22;9051;51.548;14.348;2022-12-20T01:04:19;2.10;99.90
17851;DHT22;9051;51.548;14.348;2022-12-20T01:06:51;2.10;99.90
17851;DHT22;9051;51.548;14.348;2022-12-20T01:09:25;2.10;99.90
17851;DHT22;9051;51.548;14.348;2022-12-20T01:11:56;2.10;99.90
17851;DHT22;9051;51.548;14.348;2022-12-20T01:14:28;2.20;99.90
17851;DHT22;9051;51.548;14.348;2022-12-20T01:17:00;2.20;99.90
17851;DHT22;9051;51.548;14.348;2022-12-20T01:19:32;2.20;99.90
17851;DHT22;9051;51.548;14.348;2022-12-20T01:22:04;2.20;99.90
17851;DHT22;9051;51.548;14.348;2022-12-20T01:24:37;2.20;99.90
17851;DHT22;9051;51.548;14.348;2022-12-20T01:27:09;2.20;99.90
17851;DHT22;9051;51.548;14.348;2022-12-20T01:29:41;2.20;99.90
17851;DHT22;9051;51.548;14.348;2022-12-20T01:32:13;2.20;99.90
17851;DHT22;9051;51.548;14.348;2022-12-20T01:34:45;2.30;99.90
17851;DHT22;9051;51.548;14.348;2022-12-20T01:37:17;2.30;99.90
17851;DHT22;9051;51.548;14.348;2022-12-20T01:39:50;2.30;99.90
17851;DHT22;9051;51.548;14.348;2022-12-20T01:42:22;2.30;99.90
17851;DHT22;9051;51.548;14.348;2022-12-20T01:44:57;2.30;99.90
17851;DHT22;9051;51.548;14.348;2022-12-20T01:47:32;2.30;99.90
17851;DHT22;9051;51.548;14.348;2022-12-20T01:50:07;2.30;99.90
17851;DHT22;9051;51.548;14.348;2022-12-20T01:52:42;2.30;99.90
17851;DHT22;9051;51.548;14.348;2022-12-20T01:55:19;2.30;99.90
17851;DHT22;9051;51.548;14.348;2022-12-20T01:57:56;2.30;99.90
17851;DHT22;9051;51.548;14.348;2022-12-20T02:00:30;2.30;99.90
17851;DHT22;9051;51.548;14.348;2022-12-20T02:03:04;2.30;99.90
17851;DHT22;9051;51.548;14.348;2022-12-20T02:05:39;2.30;99.90
17851;DHT22;9051;51.548;14.348;2022-12-20T02:08:13;2.30;99.90
17851;DHT22;9051;51.548;14.348;2022-12-20T02:11:00;2.30;99.90
17851;DHT22;9051;51.548;14.348;2022-12-20T02:13:40;2.30;99.90
17851;DHT22;9051;51.548;14.348;2022-12-20T02:16:22;2.40;99.90
17851;DHT22;9051;51.548;14.348;2022-12-20T02:19:03;2.40;99.90
17851;DHT22;9051;51.548;14.348;2022-12-20T02:21:42;2.40;99.90
17851;DHT22;9051;51.548;14.348;2022-12-20T02:24:34;2.30;99.90
17851;DHT22;9051;51.548;14.348;2022-12-20T02:27:41;2.40;99.90
17851;DHT22;9051;51.548;14.348;2022-12-20T02:30:17;2.40;99.90
17851;DHT22;9051;51.548;14.348;2022-12-20T02:32:55;2.40;99.90
17851;DHT22;9051;51.548;14.348;2022-12-20T02:35:31;2.40;99.90
17851;DHT22;9051;51.548;14.348;2022-12-20T02:40:53;2.50;99.90
17851;DHT22;9051;51.548;14.348;2022-12-20T02:43:28;2.60;99.90
17851;DHT22;9051;51.548;14.348;2022-12-20T02:46:25;2.60;99.90
17851;DHT22;9051;51.548;14.348;2022-12-20T02:49:01;2.60;99.90
17851;DHT22;9051;51.548;14.348;2022-12-20T02:51:35;2.60;99.90
17851;DHT22;9051;51.548;14.348;2022-12-20T02:54:08;2.60;99.90
17851;DHT22;9051;51.548;14.348;2022-12-20T02:56:42;2.60;99.90
17851;DHT22;9051;51.548;14.348;2022-12-20T02:59:19;2.60;99.90
17851;DHT22;9051;51.548;14.348;2022-12-20T03:01:54;2.60;99.90
17851;DHT22;9051;51.548;14.348;2022-12-20T03:04:30;2.50;99.90
17851;DHT22;9051;51.548;14.348;2022-12-20T03:07:04;2.60;99.90
17851;DHT22;9051;51.548;14.348;2022-12-20T03:09:38;2.60;99.90
17851;DHT22;9051;51.548;14.348;2022-12-20T03:12:12;2.60;99.90
17851;DHT22;9051;51.548;14.348;2022-12-20T03:14:45;2.60;99.90
17851;DHT22;9051;51.548;14.348;2022-12-20T03:17:20;2.60;99.90
17851;DHT22;9051;51.548;14.348;2022-12-20T03:19:52;2.60;99.90
17851;DHT22;9051;51.548;14.348;2022-12-20T03:22:24;2.70;99.90
17851;DHT22;9051;51.548;14.348;2022-12-20T03:24:56;2.50;99.90
17851;DHT22;9051;51.548;14.348;2022-12-20T03:27:29;2.50;99.90
17851;DHT22;9051;51.548;14.348;2022-12-20T03:30:03;2.50;99.90
17851;DHT22;9051;51.548;14.348;2022-12-20T03:32:40;2.50;99.90
17851;DHT22;9051;51.548;14.348;2022-12-20T03:35:12;2.50;99.90
17851;DHT22;9051;51.548;14.348;2022-12-20T03:37:45;2.50;99.90
17851;DHT22;9051;51.548;14.348;2022-12-20T03:40:18;2.50;99.90
17851;DHT22;9051;51.548;14.348;2022-12-20T03:42:50;2.50;99.90
17851;DHT22;9051;51.548;14.348;2022-12-20T03:45:21;2.50;99.90
17851;DHT22;9051;51.548;14.348;2022-12-20T03:47:55;2.40;99.90
17851;DHT22;9051;51.548;14.348;2022-12-20T03:50:30;2.40;99.90
17851;DHT22;9051;51.548;14.348;2022-12-20T03:53:04;2.40;99.90
17851;DHT22;9051;51.548;14.348;2022-12-20T03:55:37;2.40;99.90
17851;DHT22;9051;51.548;14.348;2022-12-20T03:58:09;2.50;99.90
17851;DHT22;9051;51.548;14.348;2022-12-20T04:00:42;2.50;99.90
17851;DHT22;9051;51.548;14.348;2022-12-20T04:03:36;2.60;99.90
17851;DHT22;9051;51.548;14.348;2022-12-20T04:06:08;2.60;99.90
17851;DHT22;9051;51.548;14.348;2022-12-20T04:08:40;2.60;99.90
17851;DHT22;9051;51.548;14.348;2022-12-20T04:11:13;2.60;99.90
17851;DHT22;9051;51.548;14.348;2022-12-20T04:14:11;2.60;99.90
17851;DHT22;9051;51.548;14.348;2022-12-20T04:16:43;2.70;99.90
17851;DHT22;9051;51.548;14.348;2022-12-20T04:19:16;2.60;99.90
17851;DHT22;9051;51.548;14.348;2022-12-20T04:21:50;2.60;99.90
17851;DHT22;9051;51.548;14.348;2022-12-20T04:24:25;2.60;99.90
17851;DHT22;9051;51.548;14.348;2022-12-20T04:27:13;2.60;99.90
17851;DHT22;9051;51.548;14.348;2022-12-20T04:29:46;2.50;99.90
17851;DHT22;9051;51.548;14.348;2022-12-20T04:32:22;2.50;99.90
17851;DHT22;9051;51.548;14.348;2022-12-20T04:34:55;2.50;99.90
17851;DHT22;9051;51.548;14.348;2022-12-20T04:37:27;2.50;99.90
17851;DHT22;9051;51.548;14.348;2022-12-20T04:40:00;2.50;99.90
17851;DHT22;9051;51.548;14.348;2022-12-20T04:42:58;2.40;99.90
17851;DHT22;9051;51.548;14.348;2022-12-20T04:45:31;2.50;99.90
17851;DHT22;9051;51.548;14.348;2022-12-20T04:48:03;2.50;99.90
17851;DHT22;9051;51.548;14.348;2022-12-20T04:50:46;2.50;99.90
17851;DHT22;9051;51.548;14.348;2022-12-20T04:53:19;2.50;99.90
17851;DHT22;9051;51.548;14.348;2022-12-20T04:56:08;2.40;99.90
17851;DHT22;9051;51.548;14.348;2022-12-20T04:58:41;2.40;99.90
17851;DHT22;9051;51.548;14.348;2022-12-20T05:01:14;2.40;99.90
17851;DHT22;9051;51.548;14.348;2022-12-20T05:03:52;2.40;99.90
17851;DHT22;9051;51.548;14.348;2022-12-20T05:06:25;2.40;99.90
17851;DHT22;9051;51.548;14.348;2022-12-20T05:08:58;2.40;99.90
17851;DHT22;9051;51.548;14.348;2022-12-20T05:11:30;2.40;99.90
17851;DHT22;9051;51.548;14.348;2022-12-20T05:14:02;2.50;99.90
17851;DHT22;9051;51.548;14.348;2022-12-20T05:16:34;2.50;99.90
17851;DHT22;9051;51.548;14.348;2022-12-20T05:19:07;2.50;99.90
17851;DHT22;9051;51.548;14.348;2022-12-20T05:21:44;2.50;99.90
17851;DHT22;9051;51.548;14.348;2022-12-20T05:24:35;2.50;99.90
17851;DHT22;9051;51.548;14.348;2022-12-20T05:27:35;2.60;99.90
17851;DHT22;9051;51.548;14.348;2022-12-20T05:30:08;2.60;99.90
17851;DHT22;9051;51.548;14.348;2022-12-20T05:32:41;2.60;99.90
17851;DHT22;9051;51.548;14.348;2022-12-20T05:35:13;2.70;99.90
17851;DHT22;9051;51.548;14.348;2022-12-20T05:37:47;2.70;99.90
17851;DHT22;9051;51.548;14.348;2022-12-20T05:40:22;2.80;99.90
17851;DHT22;9051;51.548;14.348;2022-12-20T05:42:54;2.80;99.90
17851;DHT22;9051;51.548;14.348;2022-12-20T05:45:34;2.80;99.90
17851;DHT22;9051;51.548;14.348;2022-12-20T05:48:11;2.80;99.90
17851;DHT22;9051;51.548;14.348;2022-12-20T05:50:45;2.80;99.90
17851;DHT22;9051;51.548;14.348;2022-12-20T05:53:45;2.90;99.90
17851;DHT22;9051;51.548;14.348;2022-12-20T05:56:18;2.90;99.90
17851;DHT22;9051;51.548;14.348;2022-12-20T05:58:52;2.90;99.90
17851;DHT22;9051;51.548;14.348;2022-12-20T06:01:24;2.90;99.90
17851;DHT22;9051;51.548;14.348;2022-12-20T06:04:01;3.00;99.90
17851;DHT22;9051;51.548;14.348;2022-12-20T06:06:33;2.80;99.90
17851;DHT22;9051;51.548;14.348;2022-12-20T06:09:07;2.80;99.90
17851;DHT22;9051;51.548;14.348;2022-12-20T06:11:46;2.80;99.90
17851;DHT22;9051;51.548;14.348;2022-12-20T06:14:19;2.90;99.90
17851;DHT22;9051;51.548;14.348;2022-12-20T06:16:52;2.90;99.90
17851;DHT22;9051;51.548;14.348;2022-12-20T06:19:24;2.90;99.90
17851;DHT22;9051;51.548;14.348;2022-12-20T06:21:58;2.80;99.90
17851;DHT22;9051;51.548;14.348;2022-12-20T06:24:50;2.90;99.90
17851;DHT22;9051;51.548;14.348;2022-12-20T06:27:27;2.90;99.90
17851;DHT22;9051;51.548;14.348;2022-12-20T06:30:12;2.90;99.90
17851;DHT22;9051;51.548;14.348;2022-12-20T06:33:04;2.90;99.90
17851;DHT22;9051;51.548;14.348;2022-12-20T06:35:36;3.00;99.90
17851;DHT22;9051;51.548;14.348;2022-12-20T06:38:09;2.90;99.90
17851;DHT22;9051;51.548;14.348;2022-12-20T06:40:43;3.00;99.90
17851;DHT22;9051;51.548;14.348;2022-12-20T06:43:15;3.00;99.90
17851;DHT22;9051;51.548;14.348;2022-12-20T06:45:47;3.00;99.90
17851;DHT22;9051;51.548;14.348;2022-12-20T06:48:19;3.00;99.90
17851;DHT22;9051;51.548;14.348;2022-12-20T06:50:53;3.30;99.90
17851;DHT22;9051;51.548;14.348;2022-12-20T06:53:25;3.00;99.90
17851;DHT22;9051;51.548;14.348;2022-12-20T06:55:59;3.00;99.90
17851;DHT22;9051;51.548;14.348;2022-12-20T06:58:31;3.00;99.90
17851;DHT22;9051;51.548;14.348;2022-12-20T07:01:03;3.00;99.90
17851;DHT22;9051;51.548;14.348;2022-12-20T07:03:34;3.00;99.90
17851;DHT22;9051;51.548;14.348;2022-12-20T07:06:06;3.00;99.90
17851;DHT22;9051;51.548;14.348;2022-12-20T07:08:38;3.00;99.90
17851;DHT22;9051;51.548;14.348;2022-12-20T07:11:11;3.00;99.90
17851;DHT22;9051;51.548;14.348;2022-12-20T07:13:43;3.00;99.90
17851;DHT22;9051;51.548;14.348;2022-12-20T07:16:15;3.00;99.90
17851;DHT22;9051;51.548;14.348;2022-12-20T07:18:48;3.00;99.90
17851;DHT22;9051;51.548;14.348;2022-12-20T07:21:20;3.00;99.90
17851;DHT22;9051;51.548;14.348;2022-12-20T07:23:54;3.00;99.90
17851;DHT22;9051;51.548;14.348;2022-12-20T07:26:27;3.00;99.90
17851;DHT22;9051;51.548;14.348;2022-12-20T07:28:59;3.00;99.90
17851;DHT22;9051;51.548;14.348;2022-12-20T07:31:31;3.00;99.90
17851;DHT22;9051;51.548;14.348;2022-12-20T07:34:03;3.00;99.90
17851;DHT22;9051;51.548;14.348;2022-12-20T07:36:35;3.00;99.90
17851;DHT22;9051;51.548;14.348;2022-12-20T07:39:07;3.10;99.90
17851;DHT22;9051;51.548;14.348;2022-12-20T07:41:40;3.10;99.90
17851;DHT22;9051;51.548;14.348;2022-12-20T07:44:18;3.10;99.90
17851;DHT22;9051;51.548;14.348;2022-12-20T07:46:50;3.10;99.90
17851;DHT22;9051;51.548;14.348;2022-12-20T07:49:22;3.00;99.90
17851;DHT22;9051;51.548;14.348;2022-12-20T07:51:56;3.10;99.90
17851;DHT22;9051;51.548;14.348;2022-12-20T07:54:31;3.10;99.90
17851;DHT22;9051;51.548;14.348;2022-12-20T07:57:10;3.10;99.90
17851;DHT22;9051;51.548;14.348;2022-12-20T07:59:46;3.10;99.90
17851;DHT22;9051;51.548;14.348;2022-12-20T08:02:22;3.10;99.90
17851;DHT22;9051;51.548;14.348;2022-12-20T08:04:56;3.10;99.90
17851;DHT22;9051;51.548;14.348;2022-12-20T08:07:29;3.00;99.90
17851;DHT22;9051;51.548;14.348;2022-12-20T08:10:01;3.10;99.90
17851;DHT22;9051;51.548;14.348;2022-12-20T08:12:35;3.30;99.90
17851;DHT22;9051;51.548;14.348;2022-12-20T08:15:08;3.10;99.90
17851;DHT22;9051;51.548;14.348;2022-12-20T08:17:40;3.10;99.90
17851;DHT22;9051;51.548;14.348;2022-12-20T08:20:12;3.10;99.90
17851;DHT22;9051;51.548;14.348;2022-12-20T08:22:44;3.10;99.90
17851;DHT22;9051;51.548;14.348;2022-12-20T08:25:16;3.20;99.90
17851;DHT22;9051;51.548;14.348;2022-12-20T08:27:50;3.20;99.90
17851;DHT22;9051;51.548;14.348;2022-12-20T08:30:22;3.10;99.90
17851;DHT22;9051;51.548;14.348;2022-12-20T08:32:55;3.10;99.90
17851;DHT22;9051;51.548;14.348;2022-12-20T08:35:27;3.10;99.90
17851;DHT22;9051;51.548;14.348;2022-12-20T08:37:58;3.10;99.90
17851;DHT22;9051;51.548;14.348;2022-12-20T08:40:30;3.20;99.90
17851;DHT22;9051;51.548;14.348;2022-12-20T08:43:04;3.20;99.90
17851;DHT22;9051;51.548;14.348;2022-12-20T08:45:35;3.20;99.90
17851;DHT22;9051;51.548;14.348;2022-12-20T08:48:08;3.10;99.90
17851;DHT22;9051;51.548;14.348;2022-12-20T08:50:41;3.10;99.90
17851;DHT22;9051;51.548;14.348;2022-12-20T08:53:13;3.10;99.90
17851;DHT22;9051;51.548;14.348;2022-12-20T08:55:44;3.10;99.90
17851;DHT22;9051;51.548;14.348;2022-12-20T08:58:18;3.20;99.90
17851;DHT22;9051;51.548;14.348;2022-12-20T09:00:50;3.20;99.90
17851;DHT22;9051;51.548;14.348;2022-12-20T09:03:22;3.20;99.90
17851;DHT22;9051;51.548;14.348;2022-12-20T09:05:54;3.20;99.90
17851;DHT22;9051;51.548;14.348;2022-12-20T09:08:26;3.10;99.90
17851;DHT22;9051;51.548;14.348;2022-12-20T09:11:03;3.20;99.90
17851;DHT22;9051;51.548;14.348;2022-12-20T09:13:37;3.30;99.90
17851;DHT22;9051;51.548;14.348;2022-12-20T09:16:09;3.30;99.90
17851;DHT22;9051;51.548;14.348;2022-12-20T09:18:41;3.30;99.90
17851;DHT22;9051;51.548;14.348;2022-12-20T09:21:13;3.30;99.90
17851;DHT22;9051;51.548;14.348;2022-12-20T09:23:45;3.40;99.90
17851;DHT22;9051;51.548;14.348;2022-12-20T09:26:19;3.50;99.90
17851;DHT22;9051;51.548;14.348;2022-12-20T09:28:53;3.50;99.90
17851;DHT22;9051;51.548;14.348;2022-12-20T09:31:25;3.60;99.90
17851;DHT22;9051;51.548;14.348;2022-12-20T09:33:58;3.60;99.90
17851;DHT22;9051;51.548;14.348;2022-12-20T09:36:31;3.60;99.90
17851;DHT22;9051;51.548;14.348;2022-12-20T09:39:03;3.60;99.90
17851;DHT22;9051;51.548;14.348;2022-12-20T09:41:38;3.70;99.90
17851;DHT22;9051;51.548;14.348;2022-12-20T09:44:16;3.70;99.90
17851;DHT22;9051;51.548;14.348;2022-12-20T09:46:52;3.70;99.90
17851;DHT22;9051;51.548;14.348;2022-12-20T09:49:28;3.80;99.90
17851;DHT22;9051;51.548;14.348;2022-12-20T09:52:32;3.80;99.90
17851;DHT22;9051;51.548;14.348;2022-12-20T09:55:17;3.90;99.90
17851;DHT22;9051;51.548;14.348;2022-12-20T09:58:03;3.90;99.90
17851;DHT22;9051;51.548;14.348;2022-12-20T10:00:43;3.90;99.90
17851;DHT22;9051;51.548;14.348;2022-12-20T10:03:19;3.90;99.90
17851;DHT22;9051;51.548;14.348;2022-12-20T10:05:52;4.00;99.90
17851;DHT22;9051;51.548;14.348;2022-12-20T10:08:39;3.90;99.90
17851;DHT22;9051;51.548;14.348;2022-12-20T10:11:33;3.90;99.90
17851;DHT22;9051;51.548;14.348;2022-12-20T10:14:19;4.00;99.90
17851;DHT22;9051;51.548;14.348;2022-12-20T10:16:56;4.00;99.90
17851;DHT22;9051;51.548;14.348;2022-12-20T10:19:47;4.10;99.90
17851;DHT22;9051;51.548;14.348;2022-12-20T10:22:25;4.00;99.90
17851;DHT22;9051;51.548;14.348;2022-12-20T10:25:01;4.10;99.90
17851;DHT22;9051;51.548;14.348;2022-12-20T10:27:42;4.00;99.90
17851;DHT22;9051;51.548;14.348;2022-12-20T10:30:16;4.00;99.90
17851;DHT22;9051;51.548;14.348;2022-12-20T10:32:52;4.10;99.90
17851;DHT22;9051;51.548;14.348;2022-12-20T10:35:26;4.00;99.90
17851;DHT22;9051;51.548;14.348;2022-12-20T10:38:01;4.10;99.90
17851;DHT22;9051;51.548;14.348;2022-12-20T10:40:35;4.10;99.90
17851;DHT22;9051;51.548;14.348;2022-12-20T10:43:15;4.10;99.90
17851;DHT22;9051;51.548;14.348;2022-12-20T10:45:56;4.10;99.90
17851;DHT22;9051;51.548;14.348;2022-12-20T10:48:32;4.20;99.90
17851;DHT22;9051;51.548;14.348;2022-12-20T10:51:14;4.30;99.90
17851;DHT22;9051;51.548;14.348;2022-12-20T10:53:53;4.30;99.90
17851;DHT22;9051;51.548;14.348;2022-12-20T10:56:26;4.20;99.90
17851;DHT22;9051;51.548;14.348;2022-12-20T10:59:01;4.30;99.90
17851;DHT22;9051;51.548;14.348;2022-12-20T11:01:34;4.20;99.90
17851;DHT22;9051;51.548;14.348;2022-12-20T11:04:25;4.20;99.90
17851;DHT22;9051;51.548;14.348;2022-12-20T11:06:58;4.20;99.90
17851;DHT22;9051;51.548;14.348;2022-12-20T11:09:33;4.20;99.90
17851;DHT22;9051;51.548;14.348;2022-12-20T11:12:10;4.20;99.90
17851;DHT22;9051;51.548;14.348;2022-12-20T11:14:44;4.20;99.90
17851;DHT22;9051;51.548;14.348;2022-12-20T11:17:26;4.10;99.90
17851;DHT22;9051;51.548;14.348;2022-12-20T11:20:24;4.10;99.90
17851;DHT22;9051;51.548;14.348;2022-12-20T11:23:10;4.20;99.90
17851;DHT22;9051;51.548;14.348;2022-12-20T11:25:57;4.20;99.90
17851;DHT22;9051;51.548;14.348;2022-12-20T11:28:45;4.20;99.90
17851;DHT22;9051;51.548;14.348;2022-12-20T11:31:24;4.30;99.90
17851;DHT22;9051;51.548;14.348;2022-12-20T11:34:05;4.30;99.90
17851;DHT22;9051;51.548;14.348;2022-12-20T11:36:58;4.40;99.90
17851;DHT22;9051;51.548;14.348;2022-12-20T11:39:39;4.40;99.90
17851;DHT22;9051;51.548;14.348;2022-12-20T11:42:20;4.50;99.90
17851;DHT22;9051;51.548;14.348;2022-12-20T11:45:02;4.70;99.90
17851;DHT22;9051;51.548;14.348;2022-12-20T11:47:52;4.50;99.90
17851;DHT22;9051;51.548;14.348;2022-12-20T11:50:44;4.50;99.90
17851;DHT22;9051;51.548;14.348;2022-12-20T11:53:25;4.50;99.90
17851;DHT22;9051;51.548;14.348;2022-12-20T11:56:01;4.60;99.90
17851;DHT22;9051;51.548;14.348;2022-12-20T11:58:45;4.60;99.90
17851;DHT22;9051;51.548;14.348;2022-12-20T12:01:21;4.60;99.90
17851;DHT22;9051;51.548;14.348;2022-12-20T12:04:03;4.60;99.90
17851;DHT22;9051;51.548;14.348;2022-12-20T12:06:38;4.60;99.90
17851;DHT22;9051;51.548;14.348;2022-12-20T12:09:17;4.60;99.90
17851;DHT22;9051;51.548;14.348;2022-12-20T12:11:55;4.50;99.90
17851;DHT22;9051;51.548;14.348;2022-12-20T12:17:29;4.40;99.90
17851;DHT22;9051;51.548;14.348;2022-12-20T12:20:25;4.40;99.90
17851;DHT22;9051;51.548;14.348;2022-12-20T12:23:09;4.30;99.90
17851;DHT22;9051;51.548;14.348;2022-12-20T12:25:45;4.30;99.90
17851;DHT22;9051;51.548;14.348;2022-12-20T12:28:19;4.20;99.90
17851;DHT22;9051;51.548;14.348;2022-12-20T12:30:54;4.20;99.90
17851;DHT22;9051;51.548;14.348;2022-12-20T12:33:31;4.20;99.90
17851;DHT22;9051;51.548;14.348;2022-12-20T12:36:15;4.20;99.90
17851;DHT22;9051;51.548;14.348;2022-12-20T12:39:15;4.20;99.90
17851;DHT22;9051;51.548;14.348;2022-12-20T12:42:17;4.20;99.90
17851;DHT22;9051;51.548;14.348;2022-12-20T12:44:54;4.10;99.90
17851;DHT22;9051;51.548;14.348;2022-12-20T12:51:27;4.10;99.90
17851;DHT22;9051;51.548;14.348;2022-12-20T12:54:15;4.10;99.90
17851;DHT22;9051;51.548;14.348;2022-12-20T12:56:49;4.10;99.90
17851;DHT22;9051;51.548;14.348;2022-12-20T12:59:41;4.10;99.90
17851;DHT22;9051;51.548;14.348;2022-12-20T13:05:31;4.10;99.90
17851;DHT22;9051;51.548;14.348;2022-12-20T13:08:14;4.10;99.90
17851;DHT22;9051;51.548;14.348;2022-12-20T13:10:59;4.10;99.90
17851;DHT22;9051;51.548;14.348;2022-12-20T13:13:31;4.10;99.90
17851;DHT22;9051;51.548;14.348;2022-12-20T13:16:10;4.10;99.90
17851;DHT22;9051;51.548;14.348;2022-12-20T13:19:01;4.10;99.90
17851;DHT22;9051;51.548;14.348;2022-12-20T13:21:37;4.10;99.90
17851;DHT22;9051;51.548;14.348;2022-12-20T13:24:37;4.10;99.90
17851;DHT22;9051;51.548;14.348;2022-12-20T13:30:27;4.10;99.90
17851;DHT22;9051;51.548;14.348;2022-12-20T13:33:37;4.10;99.90
17851;DHT22;9051;51.548;14.348;2022-12-20T13:36:29;4.10;99.90
17851;DHT22;9051;51.548;14.348;2022-12-20T13:42:05;4.10;99.90
17851;DHT22;9051;51.548;14.348;2022-12-20T13:44:42;4.10;99.90
17851;DHT22;9051;51.548;14.348;2022-12-20T13:47:35;4.00;99.90
17851;DHT22;9051;51.548;14.348;2022-12-20T13:53:18;4.00;99.90
17851;DHT22;9051;51.548;14.348;2022-12-20T13:55:50;4.00;99.90
17851;DHT22;9051;51.548;14.348;2022-12-20T13:58:25;4.00;99.90
17851;DHT22;9051;51.548;14.348;2022-12-20T14:01:04;4.10;99.90
17851;DHT22;9051;51.548;14.348;2022-12-20T14:03:40;4.00;99.90
17851;DHT22;9051;51.548;14.348;2022-12-20T14:06:13;4.00;99.90
17851;DHT22;9051;51.548;14.348;2022-12-20T14:08:49;4.00;99.90
17851;DHT22;9051;51.548;14.348;2022-12-20T14:11:23;3.90;99.90
17851;DHT22;9051;51.548;14.348;2022-12-20T14:13:57;3.90;99.90
17851;DHT22;9051;51.548;14.348;2022-12-20T14:16:31;4.00;99.90
17851;DHT22;9051;51.548;14.348;2022-12-20T14:19:04;3.90;99.90
17851;DHT22;9051;51.548;14.348;2022-12-20T14:21:37;3.90;99.90
17851;DHT22;9051;51.548;14.348;2022-12-20T14:24:14;3.80;99.90
17851;DHT22;9051;51.548;14.348;2022-12-20T14:26:50;3.80;99.90
17851;DHT22;9051;51.548;14.348;2022-12-20T14:29:27;3.80;99.90
17851;DHT22;9051;51.548;14.348;2022-12-20T14:32:00;3.80;99.90
17851;DHT22;9051;51.548;14.348;2022-12-20T14:34:33;3.80;99.90
17851;DHT22;9051;51.548;14.348;2022-12-20T14:37:27;3.80;99.90
17851;DHT22;9051;51.548;14.348;2022-12-20T14:40:20;3.70;99.90
17851;DHT22;9051;51.548;14.348;2022-12-20T14:42:52;3.70;99.90
17851;DHT22;9051;51.548;14.348;2022-12-20T14:45:26;3.70;99.90
17851;DHT22;9051;51.548;14.348;2022-12-20T14:48:01;3.70;99.90
17851;DHT22;9051;51.548;14.348;2022-12-20T14:50:35;3.60;99.90
17851;DHT22;9051;51.548;14.348;2022-12-20T14:53:16;3.70;99.90
17851;DHT22;9051;51.548;14.348;2022-12-20T14:55:50;3.60;99.90
17851;DHT22;9051;51.548;14.348;2022-12-20T14:58:24;3.70;99.90
17851;DHT22;9051;51.548;14.348;2022-12-20T15:00:58;3.60;99.90
17851;DHT22;9051;51.548;14.348;2022-12-20T15:03:30;3.70;99.90
17851;DHT22;9051;51.548;14.348;2022-12-20T15:06:03;3.60;99.90
17851;DHT22;9051;51.548;14.348;2022-12-20T15:08:36;3.70;99.90
17851;DHT22;9051;51.548;14.348;2022-12-20T15:11:15;3.60;99.90
17851;DHT22;9051;51.548;14.348;2022-12-20T15:13:52;3.60;99.90
17851;DHT22;9051;51.548;14.348;2022-12-20T15:16:27;3.60;99.90
17851;DHT22;9051;51.548;14.348;2022-12-20T15:19:00;3.60;99.90
17851;DHT22;9051;51.548;14.348;2022-12-20T15:21:35;3.70;99.90
17851;DHT22;9051;51.548;14.348;2022-12-20T15:24:10;3.70;99.90
17851;DHT22;9051;51.548;14.348;2022-12-20T15:26:44;3.70;99.90
17851;DHT22;9051;51.548;14.348;2022-12-20T15:29:18;3.70;99.90
17851;DHT22;9051;51.548;14.348;2022-12-20T15:31:51;3.70;99.90
17851;DHT22;9051;51.548;14.348;2022-12-20T15:34:28;3.60;99.90
17851;DHT22;9051;51.548;14.348;2022-12-20T15:37:01;3.60;99.90
17851;DHT22;9051;51.548;14.348;2022-12-20T15:39:34;3.70;99.90
17851;DHT22;9051;51.548;14.348;2022-12-20T15:42:13;3.60;99.90
17851;DHT22;9051;51.548;14.348;2022-12-20T15:44:46;3.60;99.90
17851;DHT22;9051;51.548;14.348;2022-12-20T15:47:18;3.60;99.90
17851;DHT22;9051;51.548;14.348;2022-12-20T15:49:50;3.50;99.90
17851;DHT22;9051;51.548;14.348;2022-12-20T15:52:23;3.50;99.90
17851;DHT22;9051;51.548;14.348;2022-12-20T15:54:55;3.50;99.90
17851;DHT22;9051;51.548;14.348;2022-12-20T15:57:28;3.50;99.90
17851;DHT22;9051;51.548;14.348;2022-12-20T16:00:00;3.50;99.90
17851;DHT22;9051;51.548;14.348;2022-12-20T16:02:33;3.50;99.90
17851;DHT22;9051;51.548;14.348;2022-12-20T16:05:05;3.50;99.90
17851;DHT22;9051;51.548;14.348;2022-12-20T16:07:38;3.50;99.90
17851;DHT22;9051;51.548;14.348;2022-12-20T16:10:12;3.50;99.90
17851;DHT22;9051;51.548;14.348;2022-12-20T16:12:46;3.50;99.90
17851;DHT22;9051;51.548;14.348;2022-12-20T16:15:19;3.50;99.90
17851;DHT22;9051;51.548;14.348;2022-12-20T16:17:51;3.50;99.90
17851;DHT22;9051;51.548;14.348;2022-12-20T16:20:23;3.50;99.90
17851;DHT22;9051;51.548;14.348;2022-12-20T16:22:57;3.50;99.90
17851;DHT22;9051;51.548;14.348;2022-12-20T16:25:31;3.60;99.90
17851;DHT22;9051;51.548;14.348;2022-12-20T16:28:04;3.60;99.90
17851;DHT22;9051;51.548;14.348;2022-12-20T16:30:36;3.50;99.90
17851;DHT22;9051;51.548;14.348;2022-12-20T16:33:16;3.50;99.90
17851;DHT22;9051;51.548;14.348;2022-12-20T16:35:51;3.50;99.90
17851;DHT22;9051;51.548;14.348;2022-12-20T16:38:23;3.60;99.90
17851;DHT22;9051;51.548;14.348;2022-12-20T16:40:55;3.60;99.90
17851;DHT22;9051;51.548;14.348;2022-12-20T16:43:29;3.50;99.90
17851;DHT22;9051;51.548;14.348;2022-12-20T16:46:01;3.50;99.90
17851;DHT22;9051;51.548;14.348;2022-12-20T16:48:33;3.50;99.90
17851;DHT22;9051;51.548;14.348;2022-12-20T16:51:21;3.50;99.90
17851;DHT22;9051;51.548;14.348;2022-12-20T16:53:55;3.60;99.90
17851;DHT22;9051;51.548;14.348;2022-12-20T16:56:28;3.50;99.90
17851;DHT22;9051;51.548;14.348;2022-12-20T16:59:01;3.50;99.90
17851;DHT22;9051;51.548;14.348;2022-12-20T17:01:35;3.60;99.90
17851;DHT22;9051;51.548;14.348;2022-12-20T17:04:12;3.60;99.90